createdAt,value
2023-01-20T00:01:39.389Z,8.03
2023-01-20T00:04:06.436Z,8.57
2023-01-20T00:06:33.453Z,9.13
2023-01-20T00:09:02.591Z,11.87
2023-01-20T00:11:30.177Z,9.90
2023-01-20T00:13:59.872Z,11.00
2023-01-20T00:16:27.425Z,11.20
2023-01-20T00:18:55.002Z,10.50
2023-01-20T00:21:22.456Z,10.70
2023-01-20T00:23:50.256Z,9.30
2023-01-20T00:26:21.140Z,11.33
2023-01-20T00:28:48.674Z,11.20
2023-01-20T00:31:22.776Z,10.77
2023-01-20T00:33:51.442Z,11.23
2023-01-20T00:36:20.739Z,11.53
2023-01-20T00:38:48.421Z,12.10
2023-01-20T00:41:15.749Z,10.43
2023-01-20T00:43:43.099Z,9.67
2023-01-20T00:46:10.497Z,10.57
2023-01-20T00:48:37.460Z,11.70
2023-01-20T00:51:05.807Z,10.87
2023-01-20T00:53:32.874Z,10.93
2023-01-20T00:56:00.067Z,12.83
2023-01-20T00:58:27.174Z,12.00
2023-01-20T01:00:56.041Z,9.77
2023-01-20T01:03:23.268Z,10.07
2023-01-20T01:05:50.315Z,12.23
2023-01-20T01:08:17.349Z,9.90
2023-01-20T01:10:44.142Z,12.40
2023-01-20T01:13:11.505Z,9.10
2023-01-20T01:15:38.314Z,9.70
2023-01-20T01:18:05.272Z,10.70
2023-01-20T01:20:32.226Z,9.33
2023-01-20T01:22:59.048Z,10.83
2023-01-20T01:25:25.935Z,9.30
2023-01-20T01:27:52.767Z,10.23
2023-01-20T01:30:19.723Z,10.93
2023-01-20T01:32:47.975Z,11.47
2023-01-20T01:35:15.208Z,10.50
2023-01-20T01:37:42.274Z,9.47
2023-01-20T01:40:10.347Z,10.73
2023-01-20T01:42:37.737Z,10.53
2023-01-20T01:45:10.664Z,10.17
2023-01-20T01:47:45.564Z,9.70
2023-01-20T01:50:19.661Z,10.63
2023-01-20T01:52:50.864Z,10.50
2023-01-20T01:55:19.598Z,9.80
2023-01-20T01:57:48.112Z,11.07
2023-01-20T02:00:15.339Z,9.87
2023-01-20T02:02:44.126Z,9.53
2023-01-20T02:05:13.851Z,9.10
2023-01-20T02:07:44.931Z,12.07
2023-01-20T02:10:13.141Z,8.73
2023-01-20T02:12:41.738Z,11.20
2023-01-20T02:15:09.497Z,10.00
2023-01-20T02:18:12.649Z,11.10
2023-01-20T02:21:21.908Z,10.47
2023-01-20T02:24:21.473Z,12.60
2023-01-20T02:27:05.147Z,11.63
2023-01-20T02:30:01.691Z,9.57
2023-01-20T02:32:50.604Z,9.53
2023-01-20T02:35:40.480Z,11.17
2023-01-20T02:38:28.505Z,9.20
2023-01-20T02:41:16.091Z,9.60
2023-01-20T02:44:23.101Z,8.33
2023-01-20T02:47:02.651Z,10.53
2023-01-20T02:50:04.264Z,8.83
2023-01-20T02:52:44.347Z,8.33
2023-01-20T02:55:22.418Z,10.20
2023-01-20T02:57:56.403Z,8.53
2023-01-20T03:00:55.804Z,8.47
2023-01-20T03:03:35.971Z,8.80
2023-01-20T03:06:10.041Z,10.27
2023-01-20T03:08:39.900Z,8.67
2023-01-20T03:11:09.205Z,10.27
2023-01-20T03:13:49.055Z,10.60
2023-01-20T03:16:22.913Z,11.57
2023-01-20T03:18:50.974Z,11.40
2023-01-20T03:21:18.507Z,9.73
2023-01-20T03:23:49.702Z,10.03
2023-01-20T03:26:19.275Z,8.90
2023-01-20T03:28:48.790Z,11.97
2023-01-20T03:31:31.079Z,10.43
2023-01-20T03:34:00.871Z,10.20
2023-01-20T03:36:30.199Z,10.70
2023-01-20T03:38:58.522Z,9.67
2023-01-20T03:41:51.383Z,9.03
2023-01-20T03:44:37.681Z,11.10
2023-01-20T03:47:17.606Z,10.53
2023-01-20T03:50:09.163Z,9.87
2023-01-20T03:52:54.252Z,10.20
2023-01-20T03:55:34.414Z,12.67
2023-01-20T03:58:15.741Z,10.60
2023-01-20T04:00:49.646Z,9.67
2023-01-20T04:03:27.154Z,9.83
2023-01-20T04:05:56.278Z,9.27
2023-01-20T04:08:26.763Z,10.87
2023-01-20T04:10:55.574Z,11.97
2023-01-20T04:13:22.422Z,11.90
2023-01-20T04:15:50.213Z,10.77
2023-01-20T04:18:24.214Z,9.53
2023-01-20T04:20:57.856Z,13.07
2023-01-20T04:23:28.631Z,10.57
2023-01-20T04:25:55.484Z,9.37
2023-01-20T04:28:22.395Z,9.93
2023-01-20T04:30:49.365Z,10.60
2023-01-20T04:33:16.307Z,10.13
2023-01-20T04:35:43.209Z,8.93
2023-01-20T04:38:10.075Z,8.70
2023-01-20T04:40:36.992Z,10.83
2023-01-20T04:43:04.085Z,10.33
2023-01-20T04:45:30.955Z,9.47
2023-01-20T04:47:57.860Z,10.87
2023-01-20T04:50:24.725Z,10.80
2023-01-20T04:52:55.750Z,11.60
2023-01-20T04:55:22.707Z,9.97
2023-01-20T04:57:49.543Z,10.77
2023-01-20T05:00:20.020Z,9.13
2023-01-20T05:02:47.656Z,10.17
2023-01-20T05:05:14.906Z,9.73
2023-01-20T05:07:41.926Z,10.53
2023-01-20T05:10:09.741Z,9.87
2023-01-20T05:12:36.575Z,9.63
2023-01-20T05:15:03.659Z,10.43
2023-01-20T05:17:30.640Z,9.57
2023-01-20T05:19:57.453Z,9.17
2023-01-20T05:22:24.358Z,9.07
2023-01-20T05:24:51.149Z,10.53
2023-01-20T05:27:18.020Z,10.57
2023-01-20T05:29:44.954Z,11.17
2023-01-20T05:32:11.897Z,10.17
2023-01-20T05:34:38.763Z,10.40
2023-01-20T05:37:05.650Z,10.07
2023-01-20T05:39:32.489Z,11.33
2023-01-20T05:41:59.278Z,13.37
2023-01-20T05:44:26.250Z,12.20
2023-01-20T05:46:53.245Z,11.77
2023-01-20T05:49:20.054Z,10.70
2023-01-20T05:51:46.838Z,12.07
2023-01-20T05:54:13.661Z,13.10
2023-01-20T05:56:40.493Z,12.87
2023-01-20T05:59:08.170Z,10.63
2023-01-20T06:01:34.968Z,9.77
2023-01-20T06:04:01.914Z,13.10
2023-01-20T06:06:28.795Z,13.20
2023-01-20T06:08:55.644Z,14.67
2023-01-20T06:11:22.728Z,15.07
2023-01-20T06:13:49.868Z,16.40
2023-01-20T06:16:18.379Z,16.53
2023-01-20T06:18:45.839Z,12.90
2023-01-20T06:21:12.788Z,12.93
2023-01-20T06:23:39.688Z,15.83
2023-01-20T06:26:13.487Z,13.93
2023-01-20T06:28:41.147Z,12.53
2023-01-20T06:31:15.592Z,15.03
2023-01-20T06:33:43.575Z,15.33
2023-01-20T06:36:13.779Z,11.50
2023-01-20T06:38:40.774Z,13.27
2023-01-20T06:41:14.931Z,13.70
2023-01-20T06:43:42.056Z,12.87
2023-01-20T06:46:13.026Z,12.40
2023-01-20T06:48:40.635Z,15.43
2023-01-20T06:51:13.142Z,12.87
2023-01-20T06:53:40.316Z,12.70
2023-01-20T06:56:09.198Z,13.53
2023-01-20T06:58:36.012Z,15.07
2023-01-20T07:01:28.410Z,15.20
2023-01-20T07:03:55.694Z,15.70
2023-01-20T07:06:40.517Z,16.70
2023-01-20T07:09:10.734Z,14.77
2023-01-20T07:11:37.826Z,16.33
2023-01-20T07:14:05.970Z,12.63
2023-01-20T07:16:33.567Z,12.50
2023-01-20T07:19:00.646Z,12.47
2023-01-20T07:21:28.158Z,14.77
2023-01-20T07:23:55.085Z,13.30
2023-01-20T07:26:26.273Z,14.77
2023-01-20T07:28:53.418Z,15.00
2023-01-20T07:31:26.883Z,13.97
2023-01-20T07:33:57.598Z,22.17
2023-01-20T07:36:25.006Z,29.03
2023-01-20T07:38:53.200Z,26.90
2023-01-20T07:41:21.359Z,26.73
2023-01-20T07:43:50.905Z,20.40
2023-01-20T07:46:18.599Z,16.73
2023-01-20T07:48:45.800Z,15.97
2023-01-20T07:51:15.248Z,17.97
2023-01-20T07:53:48.184Z,15.13
2023-01-20T07:56:25.635Z,17.73
2023-01-20T07:58:54.115Z,17.60
2023-01-20T08:01:27.975Z,15.20
2023-01-20T08:03:55.572Z,15.97
2023-01-20T08:06:24.986Z,16.17
2023-01-20T08:08:52.644Z,13.73
2023-01-20T08:11:22.270Z,13.30
2023-01-20T08:13:49.569Z,16.57
2023-01-20T08:16:18.624Z,16.23
2023-01-20T08:18:46.536Z,14.67
2023-01-20T08:21:30.713Z,14.73
2023-01-20T08:23:59.536Z,15.47
2023-01-20T08:26:29.445Z,18.43
2023-01-20T08:29:06.407Z,15.93
2023-01-20T08:31:33.600Z,14.70
2023-01-20T08:34:00.553Z,14.90
2023-01-20T08:36:34.907Z,16.77
2023-01-20T08:39:04.793Z,14.17
2023-01-20T08:41:36.198Z,16.90
2023-01-20T08:44:05.914Z,16.20
2023-01-20T08:46:33.451Z,13.43
2023-01-20T08:49:00.809Z,17.43
2023-01-20T08:51:31.812Z,14.70
2023-01-20T08:53:59.287Z,16.77
2023-01-20T08:56:26.948Z,18.07
2023-01-20T08:58:54.069Z,14.90
2023-01-20T09:01:28.738Z,18.37
2023-01-20T09:04:05.369Z,18.37
2023-01-20T09:06:46.389Z,16.70
2023-01-20T09:09:15.792Z,16.17
2023-01-20T09:11:50.518Z,16.33
2023-01-20T09:14:22.963Z,15.50
2023-01-20T09:16:50.643Z,15.67
2023-01-20T09:19:17.801Z,16.47
2023-01-20T09:21:44.897Z,14.33
2023-01-20T09:24:12.020Z,15.67
2023-01-20T09:26:39.056Z,15.30
2023-01-20T09:29:12.256Z,14.13
2023-01-20T09:31:59.030Z,14.57
2023-01-20T09:34:29.365Z,16.10
2023-01-20T09:37:19.650Z,13.10
2023-01-20T09:40:06.376Z,14.70
2023-01-20T09:43:23.965Z,13.50
2023-01-20T09:46:10.592Z,16.90
2023-01-20T09:49:07.357Z,13.03
2023-01-20T09:52:30.891Z,12.57
2023-01-20T09:55:07.882Z,12.50
2023-01-20T09:57:40.383Z,14.37
2023-01-20T10:00:20.460Z,14.47
2023-01-20T10:02:53.885Z,13.33
2023-01-20T10:05:26.939Z,12.83
2023-01-20T10:07:59.001Z,11.53
2023-01-20T10:10:40.990Z,14.67
2023-01-20T10:13:44.087Z,14.97
2023-01-20T10:16:18.801Z,13.17
2023-01-20T10:18:57.755Z,12.77
2023-01-20T10:22:05.147Z,12.87
2023-01-20T10:24:39.646Z,14.33
2023-01-20T10:27:06.511Z,15.37
2023-01-20T10:29:41.823Z,11.77
2023-01-20T10:32:23.723Z,13.07
2023-01-20T10:34:56.672Z,14.20
2023-01-20T10:37:24.475Z,14.17
2023-01-20T10:40:10.331Z,17.43
2023-01-20T10:42:37.145Z,16.93
2023-01-20T10:45:06.012Z,16.67
2023-01-20T10:47:55.791Z,18.90
2023-01-20T10:50:31.360Z,19.17
2023-01-20T10:53:30.266Z,19.37
2023-01-20T10:56:08.882Z,15.47
2023-01-20T10:58:40.925Z,18.70
2023-01-20T11:01:12.602Z,17.00
2023-01-20T11:03:45.597Z,17.33
2023-01-20T11:06:25.178Z,19.33
2023-01-20T11:08:52.712Z,19.97
2023-01-20T11:11:22.985Z,20.23
2023-01-20T11:13:51.822Z,18.70
2023-01-20T11:16:25.682Z,19.40
2023-01-20T11:19:06.053Z,18.93
2023-01-20T11:21:36.826Z,21.63
2023-01-20T11:24:31.878Z,20.67
2023-01-20T11:27:12.131Z,20.63
2023-01-20T11:29:49.986Z,19.67
2023-01-20T11:32:36.842Z,16.03
2023-01-20T11:35:21.242Z,18.17
2023-01-20T11:37:48.308Z,18.87
2023-01-20T11:40:29.123Z,17.70
2023-01-20T11:42:55.976Z,16.20
2023-01-20T11:45:34.641Z,18.07
2023-01-20T11:48:05.910Z,17.97
2023-01-20T11:50:37.332Z,21.47
2023-01-20T11:53:27.898Z,18.00
2023-01-20T11:55:58.753Z,17.47
2023-01-20T11:58:55.400Z,19.03
2023-01-20T12:01:58.179Z,18.03
2023-01-20T12:05:01.291Z,20.47
2023-01-20T12:07:45.029Z,18.60
2023-01-20T12:10:24.079Z,19.20
2023-01-20T12:13:05.945Z,18.80
2023-01-20T12:15:38.083Z,19.53
2023-01-20T12:18:19.512Z,18.90
2023-01-20T12:20:55.462Z,21.33
2023-01-20T12:23:46.073Z,19.30
2023-01-20T12:26:18.413Z,19.90
2023-01-20T12:29:19.485Z,22.07
2023-01-20T12:31:49.134Z,19.20
2023-01-20T12:34:38.924Z,19.53
2023-01-20T12:37:39.665Z,19.00
2023-01-20T12:40:42.216Z,20.53
2023-01-20T12:43:37.789Z,19.27
2023-01-20T12:46:56.813Z,20.50
2023-01-20T12:49:45.779Z,19.67
2023-01-20T12:53:05.524Z,20.13
2023-01-20T12:56:10.786Z,21.33
2023-01-20T12:59:23.874Z,21.00
2023-01-20T13:02:20.064Z,20.77
2023-01-20T13:05:17.032Z,19.90
2023-01-20T13:08:24.877Z,19.50
2023-01-20T13:11:43.589Z,18.90
2023-01-20T13:14:28.844Z,18.80
2023-01-20T13:17:18.683Z,19.77
2023-01-20T13:19:47.978Z,17.70
2023-01-20T13:22:23.062Z,18.07
2023-01-20T13:24:56.895Z,17.90
2023-01-20T13:27:34.741Z,18.13
2023-01-20T13:30:05.106Z,17.40
2023-01-20T13:32:37.925Z,18.03
2023-01-20T13:35:27.379Z,20.07
2023-01-20T13:38:00.138Z,20.40
2023-01-20T13:40:36.087Z,17.43
2023-01-20T13:43:04.276Z,20.00
2023-01-20T13:45:31.349Z,18.43
2023-01-20T13:48:06.985Z,20.13
2023-01-20T13:50:37.224Z,19.67
2023-01-20T13:53:09.934Z,19.90
2023-01-20T13:55:45.599Z,18.60
2023-01-20T13:58:22.279Z,18.90
2023-01-20T14:01:01.766Z,19.53
2023-01-20T14:03:38.147Z,20.27
2023-01-20T14:06:11.877Z,21.20
2023-01-20T14:08:50.766Z,21.57
2023-01-20T14:11:24.105Z,20.00
2023-01-20T14:13:59.038Z,23.93
2023-01-20T14:16:37.100Z,21.67
2023-01-20T14:19:34.221Z,21.30
2023-01-20T14:22:27.863Z,20.90
2023-01-20T14:25:00.785Z,24.47
2023-01-20T14:27:35.401Z,24.43
2023-01-20T14:30:26.590Z,23.83
2023-01-20T14:32:54.358Z,24.87
2023-01-20T14:35:33.606Z,24.17
2023-01-20T14:38:01.257Z,24.60
2023-01-20T14:40:35.337Z,24.47
2023-01-20T14:43:20.390Z,23.57
2023-01-20T14:45:51.515Z,23.77
2023-01-20T14:48:33.441Z,23.67
2023-01-20T14:51:04.142Z,22.63
2023-01-20T14:53:31.021Z,25.00
2023-01-20T14:56:09.705Z,24.73
2023-01-20T14:58:44.472Z,22.67
2023-01-20T15:01:22.709Z,25.87
2023-01-20T15:03:59.478Z,25.00
2023-01-20T15:06:26.841Z,27.67
2023-01-20T15:09:06.175Z,26.10
2023-01-20T15:11:34.334Z,26.03
2023-01-20T15:14:01.280Z,25.83
2023-01-20T15:16:37.006Z,25.63
2023-01-20T15:19:20.044Z,26.20
2023-01-20T15:21:51.169Z,28.70
2023-01-20T15:24:34.503Z,25.57
2023-01-20T15:27:02.718Z,26.30
2023-01-20T15:29:33.647Z,26.47
2023-01-20T15:32:08.787Z,26.60
2023-01-20T15:34:35.624Z,25.83
2023-01-20T15:37:02.551Z,27.43
2023-01-20T15:39:30.242Z,26.40
2023-01-20T15:41:58.145Z,27.93
2023-01-20T15:44:26.620Z,28.73
2023-01-20T15:46:57.368Z,25.83
2023-01-20T15:49:25.276Z,27.37
2023-01-20T15:51:52.613Z,26.33
2023-01-20T15:54:19.424Z,25.53
2023-01-20T15:56:46.286Z,24.17
2023-01-20T15:59:19.746Z,28.30
2023-01-20T16:01:50.368Z,31.40
2023-01-20T16:04:17.620Z,29.97
2023-01-20T16:06:44.874Z,27.60
2023-01-20T16:09:24.722Z,26.60
2023-01-20T16:11:52.035Z,25.67
2023-01-20T16:14:19.060Z,30.83
2023-01-20T16:16:45.913Z,29.70
2023-01-20T16:19:13.798Z,25.50
2023-01-20T16:21:41.355Z,26.70
2023-01-20T16:24:09.079Z,26.03
2023-01-20T16:26:36.084Z,26.53
2023-01-20T16:29:04.721Z,26.00
2023-01-20T16:31:33.317Z,24.17
2023-01-20T16:34:00.248Z,25.77
2023-01-20T16:36:27.103Z,26.70
2023-01-20T16:38:54.041Z,26.73
2023-01-20T16:41:27.977Z,26.97
2023-01-20T16:43:56.013Z,26.87
2023-01-20T16:46:32.697Z,24.70
2023-01-20T16:49:01.693Z,25.27
2023-01-20T16:51:30.343Z,26.93
2023-01-20T16:53:58.505Z,26.23
2023-01-20T16:56:31.404Z,25.27
2023-01-20T16:59:01.584Z,26.43
2023-01-20T17:01:30.038Z,24.17
2023-01-20T17:04:02.679Z,25.70
2023-01-20T17:06:33.567Z,25.67
2023-01-20T17:09:04.122Z,24.73
2023-01-20T17:11:37.982Z,25.67
2023-01-20T17:14:09.578Z,25.93
2023-01-20T17:16:37.915Z,24.97
2023-01-20T17:19:05.855Z,29.10
2023-01-20T17:21:37.746Z,26.83
2023-01-20T17:24:05.822Z,27.27
2023-01-20T17:26:33.386Z,29.23
2023-01-20T17:29:03.440Z,30.57
2023-01-20T17:31:36.615Z,29.50
2023-01-20T17:34:07.393Z,30.43
2023-01-20T17:36:35.004Z,28.23
2023-01-20T17:39:03.906Z,27.97
2023-01-20T17:41:31.068Z,28.40
2023-01-20T17:43:57.922Z,30.23
2023-01-20T17:46:28.936Z,26.93
2023-01-20T17:49:04.782Z,27.87
2023-01-20T17:51:31.645Z,30.27
2023-01-20T17:54:01.856Z,30.30
2023-01-20T17:56:30.413Z,28.93
2023-01-20T17:58:57.368Z,26.63
2023-01-20T18:01:27.912Z,27.43
2023-01-20T18:03:58.158Z,27.33
2023-01-20T18:06:26.905Z,28.63
2023-01-20T18:09:00.470Z,27.70
2023-01-20T18:11:30.965Z,27.13
2023-01-20T18:14:00.282Z,28.90
2023-01-20T18:16:31.067Z,24.37
2023-01-20T18:19:01.190Z,26.27
2023-01-20T18:21:37.097Z,28.70
2023-01-20T18:24:07.340Z,23.83
2023-01-20T18:26:37.487Z,24.23
2023-01-20T18:29:08.185Z,25.00
2023-01-20T18:31:35.914Z,22.97
2023-01-20T18:34:06.361Z,23.90
2023-01-20T18:36:39.892Z,24.47
2023-01-20T18:39:17.350Z,27.57
2023-01-20T18:41:44.737Z,24.70
2023-01-20T18:44:11.762Z,25.50
2023-01-20T18:46:38.789Z,23.73
2023-01-20T18:49:09.402Z,22.20
2023-01-20T18:51:36.632Z,23.30
2023-01-20T18:54:11.891Z,22.20
2023-01-20T18:56:39.364Z,21.70
2023-01-20T18:59:07.382Z,19.57
2023-01-20T19:01:37.893Z,23.83
2023-01-20T19:04:06.547Z,19.80
2023-01-20T19:06:40.669Z,22.10
2023-01-20T19:09:08.273Z,20.93
2023-01-20T19:11:39.585Z,21.40
2023-01-20T19:14:11.667Z,17.87
2023-01-20T19:16:42.112Z,22.03
2023-01-20T19:19:11.705Z,21.73
2023-01-20T19:21:38.815Z,23.53
2023-01-20T19:24:07.893Z,22.97
2023-01-20T19:26:38.899Z,39.00
2023-01-20T19:29:08.847Z,40.80
2023-01-20T19:31:39.359Z,53.00
2023-01-20T19:34:08.132Z,27.70
2023-01-20T19:36:35.776Z,22.10
2023-01-20T19:39:03.135Z,21.73
2023-01-20T19:41:35.925Z,23.43
2023-01-20T19:44:06.492Z,21.33
2023-01-20T19:46:36.627Z,21.57
2023-01-20T19:49:03.668Z,23.20
2023-01-20T19:51:31.423Z,20.07
2023-01-20T19:54:00.723Z,22.43
2023-01-20T19:56:31.792Z,21.40
2023-01-20T19:59:02.897Z,22.93
2023-01-20T20:01:36.799Z,24.43
2023-01-20T20:04:10.247Z,20.47
2023-01-20T20:06:48.552Z,24.63
2023-01-20T20:09:23.390Z,24.97
2023-01-20T20:11:50.451Z,22.50
2023-01-20T20:14:20.162Z,25.70
2023-01-20T20:16:47.679Z,21.77
2023-01-20T20:19:18.882Z,20.93
2023-01-20T20:21:46.274Z,21.83
2023-01-20T20:24:15.488Z,22.80
2023-01-20T20:26:44.525Z,22.30
2023-01-20T20:29:12.838Z,25.53
2023-01-20T20:31:40.493Z,25.83
2023-01-20T20:34:12.866Z,22.10
2023-01-20T20:36:40.052Z,22.53
2023-01-20T20:39:07.923Z,22.27
2023-01-20T20:41:36.588Z,25.00
2023-01-20T20:44:04.331Z,24.27
2023-01-20T20:46:31.620Z,22.33
2023-01-20T20:49:00.863Z,21.57
2023-01-20T20:51:33.995Z,22.80
2023-01-20T20:54:02.548Z,24.83
2023-01-20T20:56:33.541Z,23.40
2023-01-20T20:59:03.436Z,22.93
2023-01-20T21:01:34.553Z,23.37
2023-01-20T21:04:03.282Z,21.10
2023-01-20T21:06:31.273Z,29.10
2023-01-20T21:09:01.459Z,24.20
2023-01-20T21:11:29.177Z,19.37
2023-01-20T21:13:56.373Z,23.23
2023-01-20T21:16:24.748Z,21.23
2023-01-20T21:18:59.419Z,23.60
2023-01-20T21:21:28.690Z,21.57
2023-01-20T21:23:57.396Z,23.73
2023-01-20T21:26:29.603Z,29.03
2023-01-20T21:28:57.595Z,23.27
2023-01-20T21:31:26.812Z,24.30
2023-01-20T21:34:00.228Z,28.20
2023-01-20T21:36:29.477Z,24.47
2023-01-20T21:38:56.313Z,25.60
2023-01-20T21:41:23.244Z,22.70
2023-01-20T21:44:08.967Z,25.93
2023-01-20T21:46:40.612Z,23.07
2023-01-20T21:49:27.370Z,24.77
2023-01-20T21:52:14.627Z,21.80
2023-01-20T21:54:42.042Z,23.93
2023-01-20T21:57:09.237Z,25.47
2023-01-20T21:59:36.347Z,26.33
2023-01-20T22:02:03.197Z,22.43
2023-01-20T22:04:30.095Z,22.77
2023-01-20T22:06:56.987Z,24.13
2023-01-20T22:09:23.806Z,23.50
2023-01-20T22:11:50.727Z,25.47
2023-01-20T22:14:17.903Z,22.03
2023-01-20T22:16:44.850Z,25.27
2023-01-20T22:19:16.063Z,21.90
2023-01-20T22:21:43.090Z,26.07
2023-01-20T22:24:11.034Z,22.57
2023-01-20T22:26:39.033Z,28.70
2023-01-20T22:29:06.328Z,25.57
2023-01-20T22:31:34.357Z,26.87
2023-01-20T22:34:04.418Z,28.90
2023-01-20T22:36:32.083Z,25.90
2023-01-20T22:38:58.963Z,26.60
2023-01-20T22:41:26.264Z,27.67
2023-01-20T22:43:53.589Z,28.73
2023-01-20T22:46:22.676Z,26.47
2023-01-20T22:48:49.648Z,31.90
2023-01-20T22:51:25.511Z,29.47
2023-01-20T22:54:00.713Z,28.23
2023-01-20T22:56:32.440Z,30.63
2023-01-20T22:59:00.200Z,27.53
2023-01-20T23:01:30.919Z,28.57
2023-01-20T23:04:00.692Z,25.20
2023-01-20T23:06:30.554Z,27.17
2023-01-20T23:08:57.376Z,30.47
2023-01-20T23:11:24.326Z,31.00
2023-01-20T23:13:52.335Z,29.97
2023-01-20T23:16:24.872Z,29.97
2023-01-20T23:18:52.034Z,24.90
2023-01-20T23:21:20.125Z,25.83
2023-01-20T23:23:54.115Z,25.13
2023-01-20T23:26:24.324Z,26.03
2023-01-20T23:28:52.787Z,29.93
2023-01-20T23:31:20.598Z,26.07
2023-01-20T23:33:47.734Z,25.30
2023-01-20T23:36:24.487Z,24.47
2023-01-20T23:38:54.534Z,24.97
2023-01-20T23:41:21.528Z,24.23
2023-01-20T23:43:48.692Z,23.93
2023-01-20T23:46:15.533Z,25.60
2023-01-20T23:48:44.859Z,25.30
2023-01-20T23:51:11.729Z,27.73
2023-01-20T23:53:40.424Z,25.30
2023-01-20T23:56:24.087Z,26.97
2023-01-20T23:58:51.812Z,25.13
